Time;durP1;ratioP1;P1;durP2;ratioP2;P2;SDS_P1;SDS_P2;PMS_P1;PMS_P2;Temp;Humidity;BMP_temperature;BMP_pressure;BME280_temperature;BME280_humidity;BME280_pressure;Samples;Min_cycle;Max_cycle;Signal;HPM_P1;HPM_P2
2022/05/16 00:00:21;;;;;;;4.07;2.10;;;23.30;42.50;;;;;;2236308;56;21617;-87
2022/05/16 00:02:47;;;;;;;3.65;1.85;;;23.20;42.50;;;;;;2226215;56;21040;-88
2022/05/16 00:05:14;;;;;;;3.75;1.92;;;23.20;42.50;;;;;;2436606;56;20956;-88
2022/05/16 00:07:40;;;;;;;5.32;2.15;;;23.10;42.70;;;;;;2232679;56;21005;-87
2022/05/16 00:10:07;;;;;;;4.47;1.80;;;23.10;42.70;;;;;;2438827;56;21005;-88
2022/05/16 00:12:33;;;;;;;4.25;1.70;;;23.00;42.70;;;;;;2425440;56;21018;-88
2022/05/16 00:14:59;;;;;;;2.78;1.23;;;23.00;42.90;;;;;;2457272;55;20962;-86
2022/05/16 00:17:26;;;;;;;3.25;1.62;;;22.90;42.80;;;;;;2455496;56;21563;-87
2022/05/16 00:19:52;;;;;;;3.60;1.50;;;22.80;43.00;;;;;;2440100;56;21006;-87
2022/05/16 00:22:19;;;;;;;3.12;1.50;;;22.80;43.00;;;;;;2230711;56;22112;-87
2022/05/16 00:24:45;;;;;;;2.58;1.25;;;22.70;43.00;;;;;;2456589;56;21024;-88
2022/05/16 00:27:11;;;;;;;2.50;1.27;;;22.70;43.10;;;;;;2436908;56;21542;-87
2022/05/16 00:29:38;;;;;;;2.70;1.35;;;22.60;43.20;;;;;;2460756;56;20989;-86
2022/05/16 00:32:05;;;;;;;2.65;1.40;;;22.60;43.30;;;;;;2442087;56;20930;-87
2022/05/16 00:34:31;;;;;;;3.65;1.33;;;22.50;43.40;;;;;;2237845;56;21029;-87
2022/05/16 00:36:57;;;;;;;2.80;1.30;;;22.50;43.50;;;;;;2439497;56;21009;-88
2022/05/16 00:39:23;;;;;;;3.60;1.48;;;22.40;43.60;;;;;;2444457;56;20973;-87
2022/05/16 00:41:50;;;;;;;3.35;1.33;;;22.40;43.80;;;;;;2452885;55;22162;-87
2022/05/16 00:44:16;;;;;;;3.60;1.12;;;22.30;43.80;;;;;;2225600;56;20988;-88
2022/05/16 00:46:47;;;;;;;4.72;1.67;;;22.30;43.90;;;;;;2236385;56;22289;-88
2022/05/16 00:49:20;;;;;;;2.70;1.25;;;22.30;44.20;;;;;;2449580;56;21013;-89
2022/05/16 00:51:52;;;;;;;2.95;1.33;;;22.20;44.10;;;;;;2427802;56;20917;-86
2022/05/16 00:54:21;;;;;;;2.53;1.00;;;22.20;44.30;;;;;;2454005;56;21171;-87
2022/05/16 00:57:11;;;;;;;4.22;1.20;;;22.10;44.30;;;;;;2215829;56;21025;-87
2022/05/16 01:00:02;;;;;;;3.15;1.20;;;22.10;44.70;;;;;;2439881;56;20997;-87
2022/05/16 01:05:47;;;;;;;3.17;1.23;;;22.10;44.60;;;;;;2439656;56;21631;-86
2022/05/16 01:08:23;;;;;;;5.53;1.20;;;22.10;44.70;;;;;;2459036;56;21035;-86
2022/05/16 01:10:54;;;;;;;4.07;1.45;;;22.10;44.80;;;;;;2461225;56;21020;-85
2022/05/16 01:13:24;;;;;;;2.20;1.20;;;22.10;45.00;;;;;;2459766;56;21030;-86
2022/05/16 01:15:51;;;;;;;2.67;1.33;;;22.00;44.90;;;;;;2459056;56;21000;-86
2022/05/16 01:18:21;;;;;;;3.15;1.80;;;22.00;44.90;;;;;;2207797;56;20984;-88
2022/05/16 01:22:08;;;;;;;2.78;1.23;;;22.00;45.20;;;;;;2444382;56;21745;-87
2022/05/16 01:24:35;;;;;;;3.72;1.17;;;22.00;45.60;;;;;;2459442;56;21103;-86
2022/05/16 01:27:01;;;;;;;2.65;1.17;;;21.90;45.00;;;;;;2459022;56;21250;-86
2022/05/16 01:29:27;;;;;;;3.12;1.27;;;21.90;45.10;;;;;;2452797;56;21571;-89
2022/05/16 01:31:54;;;;;;;2.60;1.27;;;21.80;45.10;;;;;;2444561;56;21134;-88
2022/05/16 01:34:21;;;;;;;3.58;1.52;;;21.80;45.30;;;;;;2458465;56;21077;-87
2022/05/16 01:36:47;;;;;;;3.45;1.45;;;21.70;45.30;;;;;;2444894;56;20949;-87
2022/05/16 01:39:13;;;;;;;2.70;1.23;;;21.70;45.40;;;;;;2450898;56;21040;-88
2022/05/16 01:41:39;;;;;;;4.53;1.42;;;21.70;45.50;;;;;;2235498;56;21467;-87
2022/05/16 01:44:06;;;;;;;2.70;1.17;;;21.60;45.70;;;;;;2453109;56;20973;-87
2022/05/16 01:46:39;;;;;;;2.65;1.30;;;21.60;45.80;;;;;;2451517;56;22081;-85
2022/05/16 01:49:05;;;;;;;2.78;1.30;;;21.60;46.00;;;;;;2441530;56;21004;-87
2022/05/16 01:51:32;;;;;;;2.47;1.17;;;21.60;46.10;;;;;;2442150;56;21017;-87
2022/05/16 01:53:58;;;;;;;2.60;1.10;;;21.60;46.10;;;;;;2455164;56;20949;-88
2022/05/16 01:56:24;;;;;;;4.35;1.42;;;21.60;46.10;;;;;;2459317;56;21505;-88
2022/05/16 01:58:50;;;;;;;3.45;1.40;;;21.60;46.10;;;;;;2459049;56;21502;-88
2022/05/16 02:01:17;;;;;;;3.12;1.35;;;21.60;46.20;;;;;;2237988;56;21962;-88
2022/05/16 02:03:46;;;;;;;2.90;1.17;;;21.60;46.30;;;;;;2460114;56;20941;-88
2022/05/16 02:06:12;;;;;;;2.60;1.23;;;21.60;46.30;;;;;;2459845;56;21032;-88
2022/05/16 02:08:38;;;;;;;2.90;1.30;;;21.60;46.40;;;;;;2458901;56;21649;-88
2022/05/16 02:11:05;;;;;;;2.35;1.23;;;21.50;46.40;;;;;;2459555;55;21048;-87
2022/05/16 02:13:35;;;;;;;3.30;1.50;;;21.50;46.50;;;;;;2438194;56;21009;-89
2022/05/16 02:16:02;;;;;;;3.87;1.30;;;21.50;46.80;;;;;;2445526;56;21549;-85
2022/05/16 02:18:29;;;;;;;2.97;1.20;;;21.50;46.60;;;;;;2454031;56;21020;-85
2022/05/16 02:24:38;;;;;;;3.92;1.52;;;21.50;46.60;;;;;;2459758;55;21029;-88
2022/05/16 02:27:08;;;;;;;3.72;1.40;;;21.50;46.70;;;;;;2459251;56;21731;-87
2022/05/16 02:29:34;;;;;;;3.17;1.12;;;21.50;46.50;;;;;;2459950;56;21063;-86
2022/05/16 02:32:02;;;;;;;2.78;1.40;;;21.50;46.60;;;;;;2460250;55;20969;-87
2022/05/16 02:34:28;;;;;;;2.72;0.98;;;21.40;46.70;;;;;;2441048;56;21076;-87
2022/05/16 02:36:54;;;;;;;2.12;1.10;;;21.40;46.60;;;;;;2457523;56;20983;-87
2022/05/16 02:39:20;;;;;;;2.60;1.10;;;21.40;46.80;;;;;;2441705;56;21084;-87
2022/05/16 02:41:47;;;;;;;3.17;1.30;;;21.30;46.70;;;;;;2234044;56;21011;-89
2022/05/16 02:44:13;;;;;;;2.60;1.30;;;21.30;46.80;;;;;;2459378;56;20993;-87
2022/05/16 02:46:40;;;;;;;2.55;1.10;;;21.20;46.80;;;;;;2445018;56;20997;-86
2022/05/16 02:49:06;;;;;;;2.70;1.10;;;21.20;46.90;;;;;;2229286;56;21049;-87
2022/05/16 02:51:33;;;;;;;2.65;1.27;;;21.20;47.00;;;;;;2228897;56;20965;-87
2022/05/16 02:53:59;;;;;;;2.22;1.15;;;21.20;47.10;;;;;;2438477;56;21080;-87
2022/05/16 02:56:25;;;;;;;4.00;1.65;;;21.10;47.10;;;;;;2237629;56;21016;-89
2022/05/16 02:58:52;;;;;;;3.92;1.67;;;21.10;47.30;;;;;;2458190;56;21605;-86
2022/05/16 03:01:18;;;;;;;3.60;1.52;;;21.10;47.40;;;;;;2438791;56;21665;-87
2022/05/16 03:03:44;;;;;;;2.58;1.35;;;21.00;47.40;;;;;;2238871;56;21012;-87
2022/05/16 03:06:11;;;;;;;2.92;1.40;;;21.00;47.50;;;;;;2445199;56;22124;-87
2022/05/16 03:08:37;;;;;;;2.60;1.35;;;20.80;47.40;;;;;;2452977;56;21527;-87
2022/05/16 03:11:04;;;;;;;3.05;1.50;;;21.00;47.60;;;;;;2223824;56;21107;-87
2022/05/16 03:13:31;;;;;;;2.65;1.23;;;20.90;47.70;;;;;;2452074;56;21040;-87
2022/05/16 03:15:58;;;;;;;2.80;1.50;;;20.90;47.70;;;;;;2226733;56;21037;-88
2022/05/16 03:18:27;;;;;;;3.12;1.10;;;20.90;47.80;;;;;;2459022;56;21072;-86
2022/05/16 03:20:53;;;;;;;3.85;1.30;;;20.90;47.80;;;;;;2461220;56;21064;-87
2022/05/16 03:23:19;;;;;;;2.72;1.10;;;20.90;48.50;;;;;;2458463;56;21721;-87
2022/05/16 03:25:46;;;;;;;2.65;1.30;;;20.80;47.90;;;;;;2459094;56;21001;-87
2022/05/16 03:28:12;;;;;;;2.78;1.27;;;20.80;48.00;;;;;;2238045;56;21009;-88
2022/05/16 03:30:38;;;;;;;2.50;1.30;;;20.70;47.90;;;;;;2459267;55;21025;-88
2022/05/16 03:33:05;;;;;;;3.00;1.50;;;20.70;48.00;;;;;;2461282;56;21515;-88
2022/05/16 03:35:32;;;;;;;2.87;1.10;;;20.70;48.10;;;;;;2460294;56;20965;-88
2022/05/16 03:37:58;;;;;;;2.47;1.17;;;20.60;48.10;;;;;;2460729;56;21024;-87
2022/05/16 03:40:43;;;;;;;2.50;1.00;;;20.60;48.20;;;;;;2237456;56;21017;-89
2022/05/16 03:43:10;;;;;;;3.53;1.80;;;20.60;48.20;;;;;;2458985;56;20969;-89
2022/05/16 03:45:37;;;;;;;3.22;1.60;;;20.60;48.30;;;;;;2459267;56;21026;-88
2022/05/16 03:48:04;;;;;;;3.30;1.48;;;20.60;48.30;;;;;;2441796;56;20969;-89
2022/05/16 03:50:31;;;;;;;2.75;1.25;;;20.60;48.40;;;;;;2457074;55;20961;-89
2022/05/16 03:52:59;;;;;;;3.33;1.25;;;20.60;48.50;;;;;;2238625;56;20985;-90
2022/05/16 03:55:26;;;;;;;2.10;1.05;;;20.60;48.60;;;;;;2438780;56;21005;-87
2022/05/16 03:57:53;;;;;;;2.80;1.10;;;20.70;49.50;;;;;;2238523;56;20973;-87
2022/05/16 04:00:19;;;;;;;2.70;1.08;;;20.70;49.00;;;;;;2441779;55;21040;-88
2022/05/16 04:02:46;;;;;;;2.95;1.35;;;20.70;49.00;;;;;;2458071;56;20964;-88
2022/05/16 04:05:18;;;;;;;3.42;1.40;;;20.70;49.00;;;;;;2223263;56;20984;-90
2022/05/16 04:07:46;;;;;;;3.37;1.62;;;20.80;49.20;;;;;;2459682;56;21028;-90
2022/05/16 04:10:12;;;;;;;3.47;1.50;;;20.90;49.40;;;;;;2232074;56;20994;-90
2022/05/16 04:12:38;;;;;;;2.55;1.40;;;21.00;49.50;;;;;;2450274;56;20984;-89
2022/05/16 04:15:06;;;;;;;2.83;1.40;;;21.10;49.60;;;;;;2436807;56;21306;-86
2022/05/16 04:17:33;;;;;;;2.83;1.37;;;21.20;49.70;;;;;;2232175;56;21463;-88
2022/05/16 04:19:59;;;;;;;2.85;1.33;;;21.30;49.80;;;;;;2447248;56;20994;-90
2022/05/16 04:22:26;;;;;;;3.22;1.90;;;21.40;49.70;;;;;;2461496;55;20901;-87
2022/05/16 04:24:52;;;;;;;3.40;1.48;;;21.60;49.70;;;;;;2455190;56;21054;-87
2022/05/16 04:27:18;;;;;;;3.37;1.30;;;21.60;49.60;;;;;;2227150;56;21001;-89
2022/05/16 04:29:45;;;;;;;2.85;1.48;;;21.80;49.60;;;;;;2426600;56;21028;-88
2022/05/16 04:32:11;;;;;;;3.65;1.40;;;22.00;49.60;;;;;;2446312;55;21329;-86
2022/05/16 04:34:37;;;;;;;3.47;1.62;;;22.10;49.50;;;;;;2443349;56;21047;-87
2022/05/16 04:37:04;;;;;;;3.45;1.27;;;22.30;49.50;;;;;;2458297;56;21431;-87
2022/05/16 04:39:30;;;;;;;2.37;1.17;;;22.40;49.40;;;;;;2457536;56;21708;-88
2022/05/16 04:44:41;;;;;;;3.40;1.50;;;22.60;49.20;;;;;;2457120;56;20948;-86
2022/05/16 04:47:08;;;;;;;4.18;1.62;;;22.70;49.00;;;;;;2457495;56;21033;-85
2022/05/16 04:49:34;;;;;;;3.47;1.65;;;22.80;48.90;;;;;;2456884;56;21973;-85
2022/05/16 04:52:01;;;;;;;2.87;1.20;;;22.90;48.70;;;;;;2436935;56;21008;-87
2022/05/16 04:54:27;;;;;;;4.05;1.25;;;23.00;48.60;;;;;;2221748;56;21151;-85
2022/05/16 04:56:54;;;;;;;2.62;1.35;;;23.10;48.60;;;;;;2235958;56;21004;-85
2022/05/16 04:59:20;;;;;;;2.87;1.67;;;23.10;48.40;;;;;;2455971;56;21028;-85
2022/05/16 05:01:47;;;;;;;3.62;1.65;;;23.20;48.30;;;;;;2458956;55;20933;-87
2022/05/16 05:04:13;;;;;;;3.80;1.83;;;23.20;48.20;;;;;;2460678;56;20984;-86
2022/05/16 05:06:40;;;;;;;3.90;2.28;;;23.20;48.10;;;;;;2460604;56;20933;-87
2022/05/16 05:09:06;;;;;;;4.12;1.92;;;23.20;48.00;;;;;;2460599;56;20945;-86
2022/05/16 05:14:32;;;;;;;4.40;2.10;;;23.10;47.90;;;;;;2461441;56;20981;-86
2022/05/16 05:17:06;;;;;;;3.15;1.80;;;23.10;47.90;;;;;;2443180;56;20961;-86
2022/05/16 05:19:33;;;;;;;3.55;1.77;;;23.10;48.10;;;;;;2241514;56;21000;-87
2022/05/16 05:21:59;;;;;;;3.55;1.70;;;23.00;47.90;;;;;;2239199;56;21490;-85
2022/05/16 05:24:26;;;;;;;3.17;1.60;;;23.00;48.00;;;;;;2236686;56;20992;-87
2022/05/16 05:26:52;;;;;;;4.20;1.87;;;23.00;48.00;;;;;;2460958;56;20945;-86
2022/05/16 05:29:19;;;;;;;3.62;1.35;;;22.90;48.10;;;;;;2460663;56;21539;-86
2022/05/16 05:31:46;;;;;;;4.93;1.83;;;22.80;48.10;;;;;;2461547;55;20949;-86
2022/05/16 05:34:12;;;;;;;5.80;2.10;;;22.80;48.20;;;;;;2461174;56;20998;-86
2022/05/16 05:36:39;;;;;;;3.53;1.70;;;22.80;48.30;;;;;;2453538;56;21953;-85
2022/05/16 05:39:06;;;;;;;4.55;1.48;;;22.80;48.40;;;;;;2447367;56;20997;-87
2022/05/16 05:41:32;;;;;;;3.53;1.60;;;22.80;48.40;;;;;;2459985;55;21043;-86
2022/05/16 05:43:58;;;;;;;3.60;1.80;;;22.80;48.60;;;;;;2238334;56;21317;-85
2022/05/16 05:46:26;;;;;;;3.47;1.50;;;22.80;48.60;;;;;;2440318;56;21061;-87
2022/05/16 05:48:52;;;;;;;4.30;1.83;;;22.90;48.80;;;;;;2460685;56;21159;-88
2022/05/16 05:51:19;;;;;;;4.40;1.87;;;22.80;49.00;;;;;;2225813;56;21005;-88
2022/05/16 05:53:45;;;;;;;5.82;1.90;;;22.90;49.20;;;;;;2236936;57;21244;-88
2022/05/16 05:56:12;;;;;;;3.95;1.77;;;22.90;49.20;;;;;;2441510;56;21021;-88
2022/05/16 05:58:39;;;;;;;4.87;1.95;;;22.90;49.30;;;;;;2461560;56;20960;-87
2022/05/16 06:01:05;;;;;;;4.90;1.75;;;23.00;49.50;;;;;;2461239;55;21009;-87
2022/05/16 06:03:31;;;;;;;5.57;1.95;;;23.10;49.50;;;;;;2462032;56;20925;-87
2022/05/16 06:05:58;;;;;;;4.93;1.90;;;23.10;49.50;;;;;;2461179;56;21444;-86
2022/05/16 06:08:25;;;;;;;6.00;2.30;;;23.20;49.50;;;;;;2441019;56;20930;-87
2022/05/16 06:10:51;;;;;;;4.03;1.77;;;23.40;49.60;;;;;;2461288;55;20997;-88
2022/05/16 06:13:18;;;;;;;5.82;2.22;;;23.50;49.60;;;;;;2460949;56;21025;-88
2022/05/16 06:15:44;;;;;;;4.28;2.15;;;23.60;49.40;;;;;;2459742;56;21009;-87
2022/05/16 06:18:10;;;;;;;3.17;2.10;;;23.70;49.20;;;;;;2461640;56;20953;-87
2022/05/16 06:20:37;;;;;;;5.22;2.10;;;23.80;48.80;;;;;;2456359;56;20965;-88
2022/05/16 06:23:03;;;;;;;5.25;2.17;;;23.90;48.60;;;;;;2447914;56;21008;-87
2022/05/16 06:25:33;;;;;;;3.80;2.10;;;24.00;48.30;;;;;;2440739;55;21007;-87
2022/05/16 06:28:07;;;;;;;6.10;2.55;;;24.10;48.20;;;;;;2440531;56;21523;-87
2022/05/16 06:30:35;;;;;;;4.72;2.35;;;24.20;47.80;;;;;;2241547;56;20981;-87
2022/05/16 06:33:01;;;;;;;5.25;2.53;;;24.20;47.60;;;;;;2239352;56;21006;-89
2022/05/16 06:35:27;;;;;;;4.78;1.90;;;24.30;47.40;;;;;;2235768;56;20998;-89
2022/05/16 06:37:53;;;;;;;3.87;2.20;;;24.30;47.10;;;;;;2446239;56;21462;-87
2022/05/16 06:40:20;;;;;;;5.25;2.50;;;24.40;46.90;;;;;;2443720;56;20948;-88
2022/05/16 06:42:46;;;;;;;3.97;1.85;;;24.40;46.60;;;;;;2443925;56;20969;-88
2022/05/16 06:45:13;;;;;;;3.90;1.98;;;24.40;46.60;;;;;;2456836;56;20977;-86
2022/05/16 06:47:39;;;;;;;5.60;2.20;;;24.50;46.40;;;;;;2239015;56;21040;-88
2022/05/16 06:50:06;;;;;;;4.72;2.10;;;24.50;46.40;;;;;;2459827;56;21121;-88
2022/05/16 06:52:32;;;;;;;4.95;2.28;;;24.50;46.40;;;;;;2443759;55;20948;-88
2022/05/16 06:55:00;;;;;;;6.32;1.90;;;24.50;46.20;;;;;;2236953;56;20977;-85
2022/05/16 06:57:27;;;;;;;5.50;2.40;;;24.50;46.20;;;;;;2231474;56;21056;-88
2022/05/16 06:59:53;;;;;;;4.50;1.87;;;24.60;46.10;;;;;;2462422;56;20989;-87
2022/05/16 07:02:20;;;;;;;5.57;2.10;;;24.60;46.00;;;;;;2436419;56;21053;-87
2022/05/16 07:04:46;;;;;;;5.43;1.83;;;24.50;45.90;;;;;;2459439;56;20977;-87
2022/05/16 07:07:12;;;;;;;4.15;2.03;;;24.60;46.00;;;;;;2238415;56;21024;-88
2022/05/16 07:09:41;;;;;;;4.10;1.90;;;24.60;46.00;;;;;;2459464;56;21017;-87
2022/05/16 07:12:08;;;;;;;4.72;1.95;;;24.50;46.00;;;;;;2241702;56;21028;-85
2022/05/16 07:14:35;;;;;;;6.00;1.95;;;24.60;46.00;;;;;;2446874;56;21020;-86
2022/05/16 07:17:01;;;;;;;4.20;1.85;;;24.40;45.70;;;;;;2454123;56;20953;-86
2022/05/16 07:19:31;;;;;;;4.70;2.10;;;24.60;45.90;;;;;;2458125;56;20993;-87
2022/05/16 07:22:07;;;;;;;6.12;2.30;;;24.60;46.00;;;;;;2443605;56;21101;-85
2022/05/16 07:24:33;;;;;;;4.05;2.10;;;24.60;46.50;;;;;;2224761;56;21020;-87
2022/05/16 07:29:44;;;;;;;4.80;2.30;;;25.00;47.10;;;;;;2236930;56;21060;-85
2022/05/16 07:32:11;;;;;;;5.60;2.10;;;25.20;47.10;;;;;;2451485;55;21044;-86
2022/05/16 07:34:38;;;;;;;6.32;2.00;;;25.50;47.10;;;;;;2228368;56;21227;-88
2022/05/16 07:37:04;;;;;;;4.35;2.30;;;25.70;46.80;;;;;;2458002;56;21048;-87
2022/05/16 07:39:31;;;;;;;3.83;2.20;;;25.80;46.30;;;;;;2457145;56;20989;-87
2022/05/16 07:41:59;;;;;;;4.22;1.77;;;25.90;45.70;;;;;;2458525;55;20981;-86
2022/05/16 07:44:25;;;;;;;4.60;1.98;;;26.00;45.50;;;;;;2458401;56;21016;-88
2022/05/16 07:46:52;;;;;;;6.78;2.40;;;26.00;45.30;;;;;;2224694;56;22036;-88
2022/05/16 07:49:19;;;;;;;3.95;2.28;;;26.00;45.20;;;;;;2459747;56;21000;-87
2022/05/16 07:51:46;;;;;;;3.70;2.47;;;26.00;45.20;;;;;;2461447;55;21082;-87
2022/05/16 07:54:12;;;;;;;6.60;2.20;;;26.10;45.30;;;;;;2239102;56;20997;-87
2022/05/16 07:56:39;;;;;;;7.40;2.95;;;26.10;45.20;;;;;;2462119;56;20936;-88
2022/05/16 07:59:06;;;;;;;5.30;2.60;;;26.20;45.00;;;;;;2444706;56;20981;-87
2022/05/16 08:01:32;;;;;;;4.72;1.85;;;26.20;45.30;;;;;;2235043;56;20949;-87
2022/05/16 08:03:58;;;;;;;4.30;2.05;;;26.30;45.30;;;;;;2459497;56;20952;-87
2022/05/16 08:06:27;;;;;;;8.07;2.60;;;26.40;45.40;;;;;;2459235;56;21012;-87
2022/05/16 08:11:39;;;;;;;3.08;1.73;;;26.60;45.20;;;;;;2235105;56;21016;-86
2022/05/16 08:14:05;;;;;;;4.43;1.83;;;26.70;45.20;;;;;;2442486;56;21356;-87
2022/05/16 08:16:32;;;;;;;3.87;1.73;;;26.80;44.80;;;;;;2230700;56;21496;-87
2022/05/16 08:18:58;;;;;;;3.12;1.40;;;26.90;44.80;;;;;;2235797;56;20960;-86
2022/05/16 08:21:24;;;;;;;4.15;1.80;;;27.00;44.60;;;;;;2235447;56;21111;-87
2022/05/16 08:23:50;;;;;;;3.50;1.58;;;27.10;44.60;;;;;;2458176;56;20996;-87
2022/05/16 08:26:17;;;;;;;4.40;1.80;;;27.20;44.40;;;;;;2457989;56;22003;-88
2022/05/16 08:28:43;;;;;;;3.78;1.60;;;27.20;44.20;;;;;;2236586;56;21000;-88
2022/05/16 08:31:10;;;;;;;5.07;2.33;;;27.30;44.40;;;;;;2224731;56;21629;-87
2022/05/16 08:33:37;;;;;;;6.03;2.20;;;27.40;44.20;;;;;;2458982;56;20961;-87
2022/05/16 08:41:47;;;;;;;4.30;2.30;;;27.50;43.90;;;;;;2442378;56;21004;-87
2022/05/16 08:44:28;;;;;;;5.00;2.45;;;27.60;43.50;;;;;;2443570;56;20977;-84
2022/05/16 08:48:00;;;;;;;8.07;2.47;;;27.60;43.00;;;;;;2238152;56;20948;-88
2022/05/16 08:50:33;;;;;;;4.90;2.60;;;27.60;42.90;;;;;;2224108;56;20960;-86
2022/05/16 08:53:05;;;;;;;4.55;2.50;;;27.50;42.40;;;;;;2240588;56;21662;-85
2022/05/16 08:55:39;;;;;;;7.28;2.55;;;27.50;42.20;;;;;;2236897;56;20980;-86
2022/05/16 08:58:51;;;;;;;4.53;2.42;;;27.40;42.20;;;;;;2224146;57;21558;-86
2022/05/16 09:01:28;;;;;;;6.10;2.28;;;27.30;42.00;;;;;;2239071;56;20921;-87
2022/05/16 09:04:01;;;;;;;6.78;2.90;;;27.20;42.10;;;;;;2462123;56;20952;-87
2022/05/16 09:06:43;;;;;;;4.35;2.15;;;27.00;42.10;;;;;;2226838;56;21681;-89
2022/05/16 09:09:16;;;;;;;;;;;26.90;42.20;;;;;;2450318;56;21591;-84
2022/05/16 09:12:26;;;;;;;;;;;26.80;42.30;;;;;;2463447;55;20420;-86
2022/05/16 09:15:19;;;;;;;7.45;2.55;;;26.70;42.30;;;;;;2239108;56;20115;-86
2022/05/16 09:18:07;;;;;;;6.25;2.65;;;26.50;42.50;;;;;;2455646;56;21013;-87
2022/05/16 09:25:46;;;;;;;4.22;2.00;;;26.20;42.70;;;;;;2231170;56;20980;-86
2022/05/16 09:31:01;;;;;;;3.95;1.70;;;25.90;43.50;;;;;;2455391;56;21040;-86
2022/05/16 09:33:28;;;;;;;6.47;1.95;;;25.70;44.00;;;;;;2223673;56;20937;-86
2022/05/16 09:36:05;;;;;;;5.40;1.90;;;25.60;44.30;;;;;;2223475;56;21509;-85
2022/05/16 09:38:32;;;;;;;4.22;2.08;;;25.50;44.90;;;;;;2442692;56;21056;-86
2022/05/16 09:41:11;;;;;;;3.67;1.65;;;25.40;45.00;;;;;;2458430;56;21573;-87
2022/05/16 09:43:41;;;;;;;3.67;2.12;;;25.20;45.70;;;;;;2461092;56;21017;-85
2022/05/16 09:46:49;;;;;;;2.90;1.50;;;25.10;45.80;;;;;;2460894;56;21068;-87
2022/05/16 09:49:26;;;;;;;7.75;1.85;;;25.00;46.70;;;;;;2441522;56;20977;-88
2022/05/16 09:51:57;;;;;;;5.80;1.45;;;24.90;46.80;;;;;;2460115;55;21519;-87
2022/05/16 09:54:32;;;;;;;4.15;1.62;;;24.70;46.80;;;;;;2452197;56;21077;-88
2022/05/16 09:57:20;;;;;;;4.78;1.77;;;24.60;47.40;;;;;;2440557;56;21069;-88
2022/05/16 09:59:54;;;;;;;5.37;1.42;;;24.50;48.10;;;;;;2218331;56;21020;-87
2022/05/16 10:02:29;;;;;;;4.32;1.60;;;24.40;47.50;;;;;;2439747;55;21000;-87
2022/05/16 10:05:24;;;;;;;4.45;1.52;;;24.20;48.00;;;;;;2465455;56;20937;-87
2022/05/16 10:07:57;;;;;;;5.00;1.70;;;24.10;48.70;;;;;;2462460;56;20917;-86
2022/05/16 10:10:26;;;;;;;3.75;1.67;;;24.10;48.30;;;;;;2461056;56;21021;-87
2022/05/16 10:12:53;;;;;;;3.42;1.50;;;24.00;48.60;;;;;;2462014;56;20985;-88
2022/05/16 10:15:20;;;;;;;4.82;1.50;;;23.90;48.60;;;;;;2461800;56;21661;-87
2022/05/16 10:17:46;;;;;;;3.67;1.60;;;23.90;48.90;;;;;;2462400;56;20945;-87
2022/05/16 10:20:19;;;;;;;6.53;1.50;;;23.80;49.00;;;;;;2460744;56;20905;-87
2022/05/16 10:22:45;;;;;;;6.20;1.77;;;23.80;49.40;;;;;;2239304;56;20956;-85
2022/05/16 10:25:34;;;;;;;3.62;1.70;;;23.80;49.50;;;;;;2461656;56;21860;-86
2022/05/16 10:28:01;;;;;;;4.72;1.80;;;23.80;49.90;;;;;;2459820;56;21773;-86
2022/05/16 10:30:28;;;;;;;4.72;1.83;;;23.70;49.60;;;;;;2458926;55;20984;-85
2022/05/16 10:36:09;;;;;;;5.30;1.70;;;23.60;50.20;;;;;;2225915;56;21523;-86
2022/05/16 10:39:25;;;;;;;3.75;1.33;;;23.50;50.30;;;;;;2438377;56;21084;-86
2022/05/16 10:41:56;;;;;;;4.22;1.50;;;23.40;51.00;;;;;;2437309;56;20980;-86
2022/05/16 10:46:15;;;;;;;4.50;1.60;;;23.40;50.40;;;;;;2458745;56;20965;-87
2022/05/16 10:49:03;;;;;;;2.20;0.95;;;23.30;51.00;;;;;;2457889;56;21001;-87
2022/05/16 10:51:52;;;;;;;2.30;0.90;;;23.20;50.90;;;;;;2458274;55;21000;-87
2022/05/16 10:54:23;;;;;;;2.10;0.80;;;23.20;51.30;;;;;;2458998;56;20973;-87
2022/05/16 10:57:04;;;;;;;3.62;1.00;;;23.10;50.50;;;;;;2460628;56;20993;-86
2022/05/16 11:03:15;;;;;;;3.78;1.25;;;23.10;50.80;;;;;;2460060;56;21012;-86
2022/05/16 11:09:17;;;;;;;3.80;0.65;;;23.00;51.20;;;;;;2459769;56;21105;-86
2022/05/16 11:12:53;;;;;;;2.58;0.68;;;23.10;51.20;;;;;;2458219;55;20969;-84
2022/05/16 11:15:31;;;;;;;1.90;0.60;;;23.20;51.50;;;;;;2459232;56;21020;-86
2022/05/16 11:18:41;;;;;;;1.35;0.60;;;23.20;51.50;;;;;;2238907;56;21005;-87
2022/05/16 11:23:02;;;;;;;2.00;0.80;;;23.20;52.00;;;;;;2459124;55;21009;-87
2022/05/16 11:26:49;;;;;;;2.10;0.70;;;23.30;52.10;;;;;;2450177;56;20965;-86
2022/05/16 11:36:15;;;;;;;3.42;0.95;;;23.30;52.30;;;;;;2442601;56;20936;-86
2022/05/16 11:39:08;;;;;;;1.70;0.60;;;23.60;51.80;;;;;;2458117;56;21037;-87
2022/05/16 11:42:41;;;;;;;2.45;0.65;;;23.60;51.90;;;;;;2236777;56;21111;-87
2022/05/16 11:48:26;;;;;;;1.20;0.53;;;23.70;52.40;;;;;;2459057;56;21041;-87
2022/05/16 11:51:59;;;;;;;3.28;0.50;;;23.80;52.50;;;;;;2458414;55;21565;-86
2022/05/16 11:54:27;;;;;;;2.25;0.70;;;23.90;52.60;;;;;;2237157;56;20993;-88
2022/05/16 12:01:30;;;;;;;4.40;1.10;;;24.00;52.40;;;;;;2456971;56;21052;-86
2022/05/16 12:04:22;;;;;;;2.05;0.65;;;24.20;52.80;;;;;;2457067;56;20984;-86
2022/05/16 12:06:50;;;;;;;2.28;0.77;;;24.30;52.80;;;;;;2235273;56;21443;-86
2022/05/16 12:09:24;;;;;;;2.50;0.60;;;24.40;52.20;;;;;;2223547;56;20988;-87
2022/05/16 12:12:00;;;;;;;2.20;0.80;;;24.60;52.60;;;;;;2457519;55;20992;-87
2022/05/16 12:14:34;;;;;;;2.92;0.98;;;24.60;52.50;;;;;;2455661;56;20984;-86
2022/05/16 12:17:24;;;;;;;1.70;0.65;;;24.60;52.40;;;;;;2439109;56;21008;-86
2022/05/16 12:19:53;;;;;;;1.90;0.82;;;24.80;52.70;;;;;;2311653;56;2288526;-85
2022/05/16 12:22:43;;;;;;;3.10;1.08;;;24.80;52.10;;;;;;2236376;56;20948;-86
2022/05/16 12:25:29;;;;;;;3.55;0.95;;;25.00;52.10;;;;;;2225137;56;20977;-84
2022/05/16 12:28:23;;;;;;;3.75;1.00;;;25.00;51.60;;;;;;2237393;56;21927;-86
2022/05/16 12:30:53;;;;;;;4.55;1.00;;;25.10;51.00;;;;;;2237953;56;21602;-87
2022/05/16 12:34:02;;;;;;;2.45;0.80;;;25.20;50.90;;;;;;2458618;56;20968;-86
2022/05/16 12:36:28;;;;;;;3.33;1.27;;;25.20;51.00;;;;;;2444576;56;20989;-85
2022/05/16 12:38:58;;;;;;;2.33;0.80;;;25.20;50.70;;;;;;2451329;56;21048;-86
2022/05/16 12:44:08;;;;;;;3.42;1.10;;;25.30;50.80;;;;;;2237425;56;20977;-86
2022/05/16 12:46:46;;;;;;;3.28;0.88;;;25.40;50.90;;;;;;2458798;56;20928;-86
2022/05/16 12:49:35;;;;;;;2.60;0.90;;;25.50;50.80;;;;;;2458781;56;20948;-85
2022/05/16 12:52:06;;;;;;;2.90;1.00;;;25.50;50.80;;;;;;2441042;56;21165;-86
2022/05/16 12:57:39;;;;;;;2.92;1.10;;;25.60;50.80;;;;;;2458999;56;20970;-87
2022/05/16 13:00:27;;;;;;;2.67;0.90;;;25.70;50.80;;;;;;2458269;56;20988;-86
2022/05/16 13:04:49;;;;;;;2.25;0.85;;;25.80;50.30;;;;;;2237371;56;20956;-85
2022/05/16 13:08:49;;;;;;;3.47;0.90;;;25.90;50.00;;;;;;2458111;56;20929;-85
2022/05/16 13:11:26;;;;;;;2.25;0.75;;;26.00;49.80;;;;;;2236491;56;20976;-86
2022/05/16 13:14:19;;;;;;;2.78;0.82;;;26.00;50.20;;;;;;2237795;56;20949;-85
2022/05/16 13:16:52;;;;;;;;;;;26.10;50.40;;;;;;2446209;56;20933;-85
2022/05/16 13:19:18;;;;;;;2.65;0.80;;;26.20;50.40;;;;;;2452283;56;20107;-86
2022/05/16 13:21:55;;;;;;;3.25;1.00;;;26.30;50.10;;;;;;2227301;56;21075;-85
2022/05/16 13:24:23;;;;;;;3.72;1.10;;;26.30;50.30;;;;;;2454727;56;20996;-85
2022/05/16 13:29:49;;;;;;;2.45;0.85;;;26.50;50.30;;;;;;2448655;56;21391;-86
2022/05/16 13:32:17;;;;;;;5.18;0.93;;;26.60;50.40;;;;;;2457353;56;21411;-86
2022/05/16 13:34:54;;;;;;;3.22;1.02;;;26.70;50.30;;;;;;2231904;56;20972;-87
2022/05/16 13:37:27;;;;;;;2.10;0.82;;;26.80;50.40;;;;;;2452270;55;20930;-85
2022/05/16 13:39:55;;;;;;;2.28;1.08;;;27.00;50.20;;;;;;2446182;56;20965;-85
2022/05/16 13:42:22;;;;;;;4.22;1.48;;;27.00;49.80;;;;;;2227767;56;21093;-86
2022/05/16 13:44:49;;;;;;;2.85;1.20;;;27.10;49.60;;;;;;2446447;56;20941;-85
2022/05/16 13:47:20;;;;;;;3.37;1.37;;;27.20;49.80;;;;;;2237198;56;21016;-84
2022/05/16 13:49:46;;;;;;;4.40;1.37;;;27.30;49.50;;;;;;2236574;56;20960;-86
2022/05/16 13:52:47;;;;;;;2.33;1.15;;;27.30;49.30;;;;;;2447663;55;21001;-86
2022/05/16 13:55:14;;;;;;;4.10;1.33;;;27.40;49.20;;;;;;2431773;56;20953;-85
2022/05/16 13:57:41;;;;;;;2.55;1.00;;;27.50;49.30;;;;;;2232326;56;20984;-86
2022/05/16 14:00:36;;;;;;;3.87;1.30;;;27.60;49.50;;;;;;2226938;56;21010;-85
2022/05/16 14:03:06;;;;;;;3.72;1.20;;;27.70;49.20;;;;;;2235749;56;20989;-86
2022/05/16 14:05:41;;;;;;;4.85;1.60;;;27.90;49.20;;;;;;2458217;56;20976;-85
2022/05/16 14:08:43;;;;;;;3.78;1.30;;;28.00;48.30;;;;;;2237335;56;20944;-85
2022/05/16 14:11:12;;;;;;;4.40;1.30;;;28.10;48.20;;;;;;2236891;56;20996;-85
2022/05/16 14:13:40;;;;;;;3.72;1.10;;;28.10;48.30;;;;;;2237143;56;20993;-86
2022/05/16 14:16:12;;;;;;;5.05;1.98;;;28.20;48.30;;;;;;2458890;56;20997;-85
2022/05/16 14:18:47;;;;;;;2.92;1.30;;;28.20;48.10;;;;;;2458634;56;20945;-85
2022/05/16 14:21:23;;;;;;;3.08;0.95;;;28.30;48.20;;;;;;2458465;55;20953;-85
2022/05/16 14:24:03;;;;;;;3.85;1.20;;;28.40;48.10;;;;;;2458556;56;20977;-86